sensor_id;sensor_type;location;lat;lon;timestamp;temperature;humidity
22426;DHT22;11380;50.822;15.790;2023-01-05T00:03:20;9.30;99.90
22426;DHT22;11380;50.822;15.790;2023-01-05T00:08:27;9.40;99.90
22426;DHT22;11380;50.822;15.790;2023-01-05T00:13:35;9.70;99.90
22426;DHT22;11380;50.822;15.790;2023-01-05T00:18:59;9.80;99.90
22426;DHT22;11380;50.822;15.790;2023-01-05T00:24:23;9.80;99.90
22426;DHT22;11380;50.822;15.790;2023-01-05T00:29:30;9.80;99.90
22426;DHT22;11380;50.822;15.790;2023-01-05T00:34:35;10.00;99.90
22426;DHT22;11380;50.822;15.790;2023-01-05T00:39:44;10.00;99.90
22426;DHT22;11380;50.822;15.790;2023-01-05T00:44:50;10.10;13.60
22426;DHT22;11380;50.822;15.790;2023-01-05T00:49:57;10.10;99.90
22426;DHT22;11380;50.822;15.790;2023-01-05T00:55:04;10.10;1.00
22426;DHT22;11380;50.822;15.790;2023-01-05T01:00:15;10.10;1.00
22426;DHT22;11380;50.822;15.790;2023-01-05T01:05:24;10.10;1.00
22426;DHT22;11380;50.822;15.790;2023-01-05T01:10:30;10.20;1.00
22426;DHT22;11380;50.822;15.790;2023-01-05T01:15:37;10.20;15.40
22426;DHT22;11380;50.822;15.790;2023-01-05T01:20:43;10.20;1.00
22426;DHT22;11380;50.822;15.790;2023-01-05T01:25:49;10.10;99.90
22426;DHT22;11380;50.822;15.790;2023-01-05T01:30:56;10.00;30.10
22426;DHT22;11380;50.822;15.790;2023-01-05T01:36:04;9.90;99.90
22426;DHT22;11380;50.822;15.790;2023-01-05T01:41:13;10.00;99.90
22426;DHT22;11380;50.822;15.790;2023-01-05T01:46:21;10.10;99.90
22426;DHT22;11380;50.822;15.790;2023-01-05T01:51:37;10.00;99.90
22426;DHT22;11380;50.822;15.790;2023-01-05T01:56:52;10.10;1.00
22426;DHT22;11380;50.822;15.790;2023-01-05T02:02:00;10.20;1.00
22426;DHT22;11380;50.822;15.790;2023-01-05T02:07:07;10.10;1.00
22426;DHT22;11380;50.822;15.790;2023-01-05T02:23:40;9.80;99.90
22426;DHT22;11380;50.822;15.790;2023-01-05T02:34:40;9.80;1.00
22426;DHT22;11380;50.822;15.790;2023-01-05T02:39:57;9.80;1.00
22426;DHT22;11380;50.822;15.790;2023-01-05T02:45:21;9.70;83.20
22426;DHT22;11380;50.822;15.790;2023-01-05T02:50:42;9.40;99.90
22426;DHT22;11380;50.822;15.790;2023-01-05T03:01:29;9.10;1.00
22426;DHT22;11380;50.822;15.790;2023-01-05T03:06:52;8.90;1.00
22426;DHT22;11380;50.822;15.790;2023-01-05T03:12:22;8.80;1.00
22426;DHT22;11380;50.822;15.790;2023-01-05T03:17:53;8.70;1.00
22426;DHT22;11380;50.822;15.790;2023-01-05T03:23:05;8.50;1.00
22426;DHT22;11380;50.822;15.790;2023-01-05T03:28:49;8.50;1.00
22426;DHT22;11380;50.822;15.790;2023-01-05T03:34:45;8.40;93.10
22426;DHT22;11380;50.822;15.790;2023-01-05T03:40:17;8.30;99.90
22426;DHT22;11380;50.822;15.790;2023-01-05T03:45:31;8.30;99.90
22426;DHT22;11380;50.822;15.790;2023-01-05T03:50:43;8.40;1.00
22426;DHT22;11380;50.822;15.790;2023-01-05T03:55:49;8.60;1.00
22426;DHT22;11380;50.822;15.790;2023-01-05T04:00:56;8.70;1.00
22426;DHT22;11380;50.822;15.790;2023-01-05T04:06:03;8.90;1.00
22426;DHT22;11380;50.822;15.790;2023-01-05T04:11:17;8.80;1.00
22426;DHT22;11380;50.822;15.790;2023-01-05T04:16:22;8.90;1.00
22426;DHT22;11380;50.822;15.790;2023-01-05T04:21:29;8.70;1.00
22426;DHT22;11380;50.822;15.790;2023-01-05T04:26:36;8.60;1.00
22426;DHT22;11380;50.822;15.790;2023-01-05T04:31:42;8.60;1.00
22426;DHT22;11380;50.822;15.790;2023-01-05T04:36:49;8.80;1.00
22426;DHT22;11380;50.822;15.790;2023-01-05T04:41:56;8.80;1.00
22426;DHT22;11380;50.822;15.790;2023-01-05T04:47:03;8.70;1.00
22426;DHT22;11380;50.822;15.790;2023-01-05T04:52:09;8.70;1.00
22426;DHT22;11380;50.822;15.790;2023-01-05T04:57:15;8.50;1.00
22426;DHT22;11380;50.822;15.790;2023-01-05T05:02:22;8.40;1.00
22426;DHT22;11380;50.822;15.790;2023-01-05T05:07:29;8.30;1.00
22426;DHT22;11380;50.822;15.790;2023-01-05T05:12:36;8.10;99.90
22426;DHT22;11380;50.822;15.790;2023-01-05T05:17:43;7.60;70.00
22426;DHT22;11380;50.822;15.790;2023-01-05T05:22:50;7.30;99.90
22426;DHT22;11380;50.822;15.790;2023-01-05T05:27:56;7.30;99.90
22426;DHT22;11380;50.822;15.790;2023-01-05T05:33:03;7.30;99.90
22426;DHT22;11380;50.822;15.790;2023-01-05T05:38:11;7.30;99.90
22426;DHT22;11380;50.822;15.790;2023-01-05T05:43:17;7.40;99.90
22426;DHT22;11380;50.822;15.790;2023-01-05T05:48:24;7.50;99.90
22426;DHT22;11380;50.822;15.790;2023-01-05T05:53:32;7.40;99.90
22426;DHT22;11380;50.822;15.790;2023-01-05T05:58:39;7.60;99.90
22426;DHT22;11380;50.822;15.790;2023-01-05T06:03:45;7.60;99.90
22426;DHT22;11380;50.822;15.790;2023-01-05T06:08:52;7.60;99.90
22426;DHT22;11380;50.822;15.790;2023-01-05T06:13:58;7.70;99.90
22426;DHT22;11380;50.822;15.790;2023-01-05T06:19:08;7.70;99.90
22426;DHT22;11380;50.822;15.790;2023-01-05T06:24:15;7.70;99.90
22426;DHT22;11380;50.822;15.790;2023-01-05T06:29:22;7.60;99.90
22426;DHT22;11380;50.822;15.790;2023-01-05T06:34:29;7.80;99.90
22426;DHT22;11380;50.822;15.790;2023-01-05T06:39:36;7.80;99.90
22426;DHT22;11380;50.822;15.790;2023-01-05T06:44:42;7.80;99.90
22426;DHT22;11380;50.822;15.790;2023-01-05T06:49:49;7.90;99.90
22426;DHT22;11380;50.822;15.790;2023-01-05T06:54:55;8.10;84.90
22426;DHT22;11380;50.822;15.790;2023-01-05T07:00:04;8.30;9.00
22426;DHT22;11380;50.822;15.790;2023-01-05T07:05:12;8.30;1.00
22426;DHT22;11380;50.822;15.790;2023-01-05T07:10:21;8.30;1.00
22426;DHT22;11380;50.822;15.790;2023-01-05T07:15:27;8.30;1.00
22426;DHT22;11380;50.822;15.790;2023-01-05T07:20:33;8.40;1.00
22426;DHT22;11380;50.822;15.790;2023-01-05T07:25:40;8.40;1.00
22426;DHT22;11380;50.822;15.790;2023-01-05T07:30:50;8.50;1.00
22426;DHT22;11380;50.822;15.790;2023-01-05T07:36:02;8.40;1.00
22426;DHT22;11380;50.822;15.790;2023-01-05T07:41:09;8.50;1.00
22426;DHT22;11380;50.822;15.790;2023-01-05T07:46:15;8.50;1.00
22426;DHT22;11380;50.822;15.790;2023-01-05T07:51:21;8.50;1.00
22426;DHT22;11380;50.822;15.790;2023-01-05T07:56:27;8.50;1.00
22426;DHT22;11380;50.822;15.790;2023-01-05T08:01:34;8.50;99.90
22426;DHT22;11380;50.822;15.790;2023-01-05T08:06:41;8.50;99.90
22426;DHT22;11380;50.822;15.790;2023-01-05T08:11:48;8.50;99.90
22426;DHT22;11380;50.822;15.790;2023-01-05T08:16:54;8.50;1.00
22426;DHT22;11380;50.822;15.790;2023-01-05T08:22:01;8.60;99.90
22426;DHT22;11380;50.822;15.790;2023-01-05T08:27:08;8.60;99.90
22426;DHT22;11380;50.822;15.790;2023-01-05T08:32:15;8.60;99.90
22426;DHT22;11380;50.822;15.790;2023-01-05T08:37:22;8.60;99.90
22426;DHT22;11380;50.822;15.790;2023-01-05T08:42:27;8.50;99.90
22426;DHT22;11380;50.822;15.790;2023-01-05T08:47:33;8.50;1.00
22426;DHT22;11380;50.822;15.790;2023-01-05T08:52:40;8.50;99.90
22426;DHT22;11380;50.822;15.790;2023-01-05T08:57:46;8.60;99.90
22426;DHT22;11380;50.822;15.790;2023-01-05T09:03:00;8.60;99.90
22426;DHT22;11380;50.822;15.790;2023-01-05T09:08:02;8.70;99.90
22426;DHT22;11380;50.822;15.790;2023-01-05T09:13:12;8.70;99.90
22426;DHT22;11380;50.822;15.790;2023-01-05T09:18:21;8.70;99.90
22426;DHT22;11380;50.822;15.790;2023-01-05T09:23:28;8.70;99.90
22426;DHT22;11380;50.822;15.790;2023-01-05T09:28:34;8.80;99.90
22426;DHT22;11380;50.822;15.790;2023-01-05T09:33:42;8.80;99.90
22426;DHT22;11380;50.822;15.790;2023-01-05T09:38:56;8.70;99.90
22426;DHT22;11380;50.822;15.790;2023-01-05T09:44:05;8.70;99.90
22426;DHT22;11380;50.822;15.790;2023-01-05T09:49:15;8.70;99.90
22426;DHT22;11380;50.822;15.790;2023-01-05T09:54:26;8.80;99.90
22426;DHT22;11380;50.822;15.790;2023-01-05T09:59:44;8.80;99.90
22426;DHT22;11380;50.822;15.790;2023-01-05T10:04:49;8.50;1.00
22426;DHT22;11380;50.822;15.790;2023-01-05T10:09:59;8.40;1.00
22426;DHT22;11380;50.822;15.790;2023-01-05T10:15:11;8.40;1.00
22426;DHT22;11380;50.822;15.790;2023-01-05T10:26:01;8.50;1.00
22426;DHT22;11380;50.822;15.790;2023-01-05T10:31:18;8.50;1.00
22426;DHT22;11380;50.822;15.790;2023-01-05T10:47:21;8.70;99.90
22426;DHT22;11380;50.822;15.790;2023-01-05T10:52:29;8.70;99.90
22426;DHT22;11380;50.822;15.790;2023-01-05T10:57:38;8.70;99.90
22426;DHT22;11380;50.822;15.790;2023-01-05T11:08:25;8.40;1.00
22426;DHT22;11380;50.822;15.790;2023-01-05T11:13:44;8.40;1.00
22426;DHT22;11380;50.822;15.790;2023-01-05T11:19:03;8.40;1.00
22426;DHT22;11380;50.822;15.790;2023-01-05T11:29:34;8.30;1.00
22426;DHT22;11380;50.822;15.790;2023-01-05T11:34:45;8.30;1.00
22426;DHT22;11380;50.822;15.790;2023-01-05T11:40:03;8.20;1.00
22426;DHT22;11380;50.822;15.790;2023-01-05T11:45:18;8.20;1.00
22426;DHT22;11380;50.822;15.790;2023-01-05T11:50:55;8.10;1.00
22426;DHT22;11380;50.822;15.790;2023-01-05T11:55:57;8.00;1.00
22426;DHT22;11380;50.822;15.790;2023-01-05T12:12:26;7.90;1.00
22426;DHT22;11380;50.822;15.790;2023-01-05T12:23:47;8.20;1.00
22426;DHT22;11380;50.822;15.790;2023-01-05T12:40:31;8.50;1.00
22426;DHT22;11380;50.822;15.790;2023-01-05T12:46:04;8.30;1.00
22426;DHT22;11380;50.822;15.790;2023-01-05T12:51:27;8.10;1.00
22426;DHT22;11380;50.822;15.790;2023-01-05T12:56:41;7.90;1.00
22426;DHT22;11380;50.822;15.790;2023-01-05T13:07:31;7.80;1.00
22426;DHT22;11380;50.822;15.790;2023-01-05T13:12:39;7.80;1.00
22426;DHT22;11380;50.822;15.790;2023-01-05T13:17:49;7.90;1.00
22426;DHT22;11380;50.822;15.790;2023-01-05T13:23:09;7.90;1.00
22426;DHT22;11380;50.822;15.790;2023-01-05T13:28:16;7.80;1.00
22426;DHT22;11380;50.822;15.790;2023-01-05T13:55:18;7.90;1.00
22426;DHT22;11380;50.822;15.790;2023-01-05T14:00:34;7.90;1.00
22426;DHT22;11380;50.822;15.790;2023-01-05T14:05:57;7.80;1.00
22426;DHT22;11380;50.822;15.790;2023-01-05T14:11:09;7.90;1.00
22426;DHT22;11380;50.822;15.790;2023-01-05T14:27:08;7.90;1.00
22426;DHT22;11380;50.822;15.790;2023-01-05T14:32:33;7.90;1.00
22426;DHT22;11380;50.822;15.790;2023-01-05T14:43:33;7.90;99.90
22426;DHT22;11380;50.822;15.790;2023-01-05T14:48:42;7.80;99.90
22426;DHT22;11380;50.822;15.790;2023-01-05T14:54:05;7.70;99.90
22426;DHT22;11380;50.822;15.790;2023-01-05T14:59:21;7.70;99.90
22426;DHT22;11380;50.822;15.790;2023-01-05T15:04:31;7.60;99.90
22426;DHT22;11380;50.822;15.790;2023-01-05T15:32:20;7.40;99.90
22426;DHT22;11380;50.822;15.790;2023-01-05T15:37:40;7.40;99.90
22426;DHT22;11380;50.822;15.790;2023-01-05T15:42:50;7.30;99.90
22426;DHT22;11380;50.822;15.790;2023-01-05T15:53:33;7.10;99.90
22426;DHT22;11380;50.822;15.790;2023-01-05T15:58:44;7.10;99.90
22426;DHT22;11380;50.822;15.790;2023-01-05T16:04:03;7.00;99.90
22426;DHT22;11380;50.822;15.790;2023-01-05T16:09:07;7.00;99.90
22426;DHT22;11380;50.822;15.790;2023-01-05T16:14:32;6.90;99.90
22426;DHT22;11380;50.822;15.790;2023-01-05T16:19:51;6.90;99.90
22426;DHT22;11380;50.822;15.790;2023-01-05T16:25:11;6.80;99.90
22426;DHT22;11380;50.822;15.790;2023-01-05T16:36:04;6.80;99.90
22426;DHT22;11380;50.822;15.790;2023-01-05T16:46:30;6.70;99.90
22426;DHT22;11380;50.822;15.790;2023-01-05T16:51:39;6.60;99.90
22426;DHT22;11380;50.822;15.790;2023-01-05T16:56:58;6.60;99.90
22426;DHT22;11380;50.822;15.790;2023-01-05T17:02:02;6.70;99.90
22426;DHT22;11380;50.822;15.790;2023-01-05T17:07:12;6.60;1.00
22426;DHT22;11380;50.822;15.790;2023-01-05T17:12:21;6.70;1.00
22426;DHT22;11380;50.822;15.790;2023-01-05T17:17:27;6.70;1.00
22426;DHT22;11380;50.822;15.790;2023-01-05T17:22:34;6.70;1.00
22426;DHT22;11380;50.822;15.790;2023-01-05T17:27:40;6.60;1.00
22426;DHT22;11380;50.822;15.790;2023-01-05T17:32:46;6.60;1.00
22426;DHT22;11380;50.822;15.790;2023-01-05T17:37:54;6.60;1.00
22426;DHT22;11380;50.822;15.790;2023-01-05T17:43:01;6.60;1.00
22426;DHT22;11380;50.822;15.790;2023-01-05T17:48:08;6.40;99.90
22426;DHT22;11380;50.822;15.790;2023-01-05T17:53:14;6.40;99.90
22426;DHT22;11380;50.822;15.790;2023-01-05T17:58:20;6.40;99.90
22426;DHT22;11380;50.822;15.790;2023-01-05T18:03:29;6.40;99.90
22426;DHT22;11380;50.822;15.790;2023-01-05T18:08:36;6.40;99.90
22426;DHT22;11380;50.822;15.790;2023-01-05T18:13:42;6.40;99.90
22426;DHT22;11380;50.822;15.790;2023-01-05T18:18:48;6.30;99.90
22426;DHT22;11380;50.822;15.790;2023-01-05T18:23:55;6.30;99.90
22426;DHT22;11380;50.822;15.790;2023-01-05T18:29:01;6.30;99.90
22426;DHT22;11380;50.822;15.790;2023-01-05T18:34:07;6.30;99.90
22426;DHT22;11380;50.822;15.790;2023-01-05T18:39:14;6.30;99.90
22426;DHT22;11380;50.822;15.790;2023-01-05T18:44:22;6.30;99.90
22426;DHT22;11380;50.822;15.790;2023-01-05T18:49:28;6.30;99.90
22426;DHT22;11380;50.822;15.790;2023-01-05T18:54:38;6.40;99.90
22426;DHT22;11380;50.822;15.790;2023-01-05T18:59:45;6.40;99.90
22426;DHT22;11380;50.822;15.790;2023-01-05T19:04:51;6.30;99.90
22426;DHT22;11380;50.822;15.790;2023-01-05T19:09:57;6.30;99.90
22426;DHT22;11380;50.822;15.790;2023-01-05T19:15:05;6.30;99.90
22426;DHT22;11380;50.822;15.790;2023-01-05T19:20:12;6.30;99.90
22426;DHT22;11380;50.822;15.790;2023-01-05T19:25:19;6.30;99.90
22426;DHT22;11380;50.822;15.790;2023-01-05T19:30:26;6.20;99.90
22426;DHT22;11380;50.822;15.790;2023-01-05T19:35:34;6.20;99.90
22426;DHT22;11380;50.822;15.790;2023-01-05T19:40:40;6.20;1.00
22426;DHT22;11380;50.822;15.790;2023-01-05T19:45:46;6.00;1.00
22426;DHT22;11380;50.822;15.790;2023-01-05T19:50:57;6.10;1.00
22426;DHT22;11380;50.822;15.790;2023-01-05T19:56:05;6.10;1.00
22426;DHT22;11380;50.822;15.790;2023-01-05T20:01:16;6.00;1.00
22426;DHT22;11380;50.822;15.790;2023-01-05T20:06:34;5.90;1.00
22426;DHT22;11380;50.822;15.790;2023-01-05T20:11:43;6.00;1.00
22426;DHT22;11380;50.822;15.790;2023-01-05T20:16:55;5.90;1.00
22426;DHT22;11380;50.822;15.790;2023-01-05T20:22:05;5.90;1.00
22426;DHT22;11380;50.822;15.790;2023-01-05T20:27:15;6.00;1.00
22426;DHT22;11380;50.822;15.790;2023-01-05T20:32:24;5.90;1.00
22426;DHT22;11380;50.822;15.790;2023-01-05T20:37:31;5.90;1.00
22426;DHT22;11380;50.822;15.790;2023-01-05T20:42:38;5.90;1.00
22426;DHT22;11380;50.822;15.790;2023-01-05T20:47:44;5.80;1.00
22426;DHT22;11380;50.822;15.790;2023-01-05T20:52:51;5.80;1.00
22426;DHT22;11380;50.822;15.790;2023-01-05T20:57:58;5.80;1.00
22426;DHT22;11380;50.822;15.790;2023-01-05T21:03:05;5.80;1.00
22426;DHT22;11380;50.822;15.790;2023-01-05T21:08:13;5.80;1.00
22426;DHT22;11380;50.822;15.790;2023-01-05T21:13:20;5.90;1.00
22426;DHT22;11380;50.822;15.790;2023-01-05T21:18:30;5.80;1.00
22426;DHT22;11380;50.822;15.790;2023-01-05T21:23:37;5.80;1.00
22426;DHT22;11380;50.822;15.790;2023-01-05T21:28:45;5.80;1.00
22426;DHT22;11380;50.822;15.790;2023-01-05T21:33:53;5.80;1.00
22426;DHT22;11380;50.822;15.790;2023-01-05T21:39:03;5.80;1.00
22426;DHT22;11380;50.822;15.790;2023-01-05T21:44:14;5.80;1.00
22426;DHT22;11380;50.822;15.790;2023-01-05T21:49:21;5.80;1.00
22426;DHT22;11380;50.822;15.790;2023-01-05T21:54:28;5.70;1.00
22426;DHT22;11380;50.822;15.790;2023-01-05T21:59:52;5.80;1.00
22426;DHT22;11380;50.822;15.790;2023-01-05T22:05:00;5.80;1.00
22426;DHT22;11380;50.822;15.790;2023-01-05T22:10:09;5.70;1.00
22426;DHT22;11380;50.822;15.790;2023-01-05T22:15:15;5.70;1.00
22426;DHT22;11380;50.822;15.790;2023-01-05T22:20:24;5.70;1.00
22426;DHT22;11380;50.822;15.790;2023-01-05T22:25:30;5.70;1.00
22426;DHT22;11380;50.822;15.790;2023-01-05T22:30:39;5.60;1.00
22426;DHT22;11380;50.822;15.790;2023-01-05T22:35:45;5.60;1.00
22426;DHT22;11380;50.822;15.790;2023-01-05T22:40:58;5.60;1.00
22426;DHT22;11380;50.822;15.790;2023-01-05T22:46:13;5.60;1.00
22426;DHT22;11380;50.822;15.790;2023-01-05T22:51:19;5.60;1.00
22426;DHT22;11380;50.822;15.790;2023-01-05T22:56:30;5.60;1.00
22426;DHT22;11380;50.822;15.790;2023-01-05T23:01:39;5.60;1.00
22426;DHT22;11380;50.822;15.790;2023-01-05T23:06:50;5.60;1.00
22426;DHT22;11380;50.822;15.790;2023-01-05T23:11:57;5.60;1.00
22426;DHT22;11380;50.822;15.790;2023-01-05T23:17:04;5.60;1.00
22426;DHT22;11380;50.822;15.790;2023-01-05T23:22:13;5.70;1.00
22426;DHT22;11380;50.822;15.790;2023-01-05T23:27:20;5.60;1.00
22426;DHT22;11380;50.822;15.790;2023-01-05T23:32:26;5.60;1.00
22426;DHT22;11380;50.822;15.790;2023-01-05T23:37:34;5.50;1.00
22426;DHT22;11380;50.822;15.790;2023-01-05T23:42:40;5.40;1.00
22426;DHT22;11380;50.822;15.790;2023-01-05T23:47:47;5.50;1.00
22426;DHT22;11380;50.822;15.790;2023-01-05T23:52:54;5.50;1.00
22426;DHT22;11380;50.822;15.790;2023-01-05T23:58:01;5.40;1.00
